M/T Four Island — IBCA — position and weather

sailwx.info

Track history (hours):
 
Tides and Currents Weather Stations Pressure Air Temp Water Temp Dewpoint Dewpoint Depression Visibility Wind Speed Wind Dir Waves Ship Positions

M/T Four Island

Last reported at 2014-Oct-07 09:26 UTC. Time now 2014-Oct-21 00:48 UTC.
Position N 22°47' E 119°56'.
Warning: this ship's position is 13 days out of date.

Length 233 m; draft 13.8 m.

Type: Ship. MMSI: 247008000.

Date/timePositionNaut miles runAvg speedWind from/ knotsBaromVisibWave heightAir tempDewpointWater temp
2014-Oct-07 09:26N 22°47' E 119°56'910.0
2014-Oct-07 08:33N 22°39' E 119°56'  
2014-Sep-30 09:33N 01°15' E 104°04'7 6.9
2014-Sep-30 08:33N 01°16' E 103°57'1 1.1
2014-Sep-30 07:29N 01°17' E 103°57'0 0.1
2014-Sep-30 06:08N 01°17' E 103°57'0 0.0
2014-Sep-30 05:29N 01°17' E 103°57'0 0.0
2014-Sep-30 03:29N 01°17' E 103°57'0 0.0
2014-Sep-30 02:32N 01°17' E 103°57'0 0.0
2014-Sep-30 01:29N 01°17' E 103°57'0 0.0
2014-Sep-30 00:23N 01°17' E 103°57'0 0.0
2014-Sep-29 23:32N 01°17' E 103°57'0 0.0
2014-Sep-29 22:32N 01°17' E 103°57'0 0.0
2014-Sep-29 21:32N 01°17' E 103°57'0 0.0
2014-Sep-29 20:32N 01°17' E 103°57'0 0.0
2014-Sep-29 19:32N 01°17' E 103°57'0 0.0
2014-Sep-29 18:32N 01°17' E 103°57'0 0.1
2014-Sep-29 17:33N 01°17' E 103°57'2 2.3
2014-Sep-29 16:33N 01°15' E 103°58'2 2.0
2014-Sep-29 15:33N 01°14' E 103°56'8 7.7
2014-Sep-29 14:33N 01°10' E 103°50'1110.9
2014-Sep-29 13:33N 01°04' E 103°41'8 8.3
2014-Sep-29 12:33N 01°06' E 103°33'9 8.8
2014-Sep-29 11:33N 01°11' E 103°25'  
Track history (hours):
 
Tides and Currents Weather Stations Pressure Air Temp Water Temp Dewpoint Dewpoint Depression Visibility Wind Speed Wind Dir Waves Ship Positions

M/T Four Island

Last reported at 2014-Oct-07 09:26 UTC. Time now 2014-Oct-21 00:48 UTC.
Position N 22°47' E 119°56'.
Warning: this ship's position is 13 days out of date.

Length 233 m; draft 13.8 m.

Type: Ship. MMSI: 247008000.

Date/timePositionNaut miles runAvg speedWind from/ knotsBaromVisibWave heightAir tempDewpointWater temp
2014-Oct-07 09:26N 22°47' E 119°56'910.0
2014-Oct-07 08:33N 22°39' E 119°56'  
2014-Sep-30 09:33N 01°15' E 104°04'7 6.9
2014-Sep-30 08:33N 01°16' E 103°57'1 1.1
2014-Sep-30 07:29N 01°17' E 103°57'0 0.1
2014-Sep-30 06:08N 01°17' E 103°57'0 0.0
2014-Sep-30 05:29N 01°17' E 103°57'0 0.0
2014-Sep-30 03:29N 01°17' E 103°57'0 0.0
2014-Sep-30 02:32N 01°17' E 103°57'0 0.0
2014-Sep-30 01:29N 01°17' E 103°57'0 0.0
2014-Sep-30 00:23N 01°17' E 103°57'0 0.0
2014-Sep-29 23:32N 01°17' E 103°57'0 0.0
2014-Sep-29 22:32N 01°17' E 103°57'0 0.0
2014-Sep-29 21:32N 01°17' E 103°57'0 0.0
2014-Sep-29 20:32N 01°17' E 103°57'0 0.0
2014-Sep-29 19:32N 01°17' E 103°57'0 0.0
2014-Sep-29 18:32N 01°17' E 103°57'0 0.1
2014-Sep-29 17:33N 01°17' E 103°57'2 2.3
2014-Sep-29 16:33N 01°15' E 103°58'2 2.0
2014-Sep-29 15:33N 01°14' E 103°56'8 7.7
2014-Sep-29 14:33N 01°10' E 103°50'1110.9
2014-Sep-29 13:33N 01°04' E 103°41'8 8.3
2014-Sep-29 12:33N 01°06' E 103°33'9 8.8
2014-Sep-29 11:33N 01°11' E 103°25'  

Dump ship's entire track history